Time;durP1;ratioP1;P1;durP2;ratioP2;P2;SDS_P1;SDS_P2;PMS_P1;PMS_P2;Temp;Humidity;BMP_temperature;BMP_pressure;BME280_temperature;BME280_humidity;BME280_pressure;Samples;Min_cycle;Max_cycle;Signal;HPM_P1;HPM_P2
2022/05/13 00:01:34;;;;;;;7.60;6.43;;;;;;;13.46;59.76;100917.25;5021724;28;20204;-84
2022/05/13 00:04:00;;;;;;;7.03;6.13;;;;;;;13.48;59.92;100922.47;5024046;28;20202;-83
2022/05/13 00:06:27;;;;;;;7.30;6.53;;;;;;;13.48;59.76;100926.00;5020509;28;20203;-83
2022/05/13 00:08:55;;;;;;;8.10;7.30;;;;;;;13.45;59.32;100928.91;5028359;28;20268;-83
2022/05/13 00:11:21;;;;;;;7.70;6.90;;;;;;;13.38;58.92;100927.66;5012333;28;20582;-84
2022/05/13 00:13:48;;;;;;;9.23;7.20;;;;;;;13.28;59.79;100931.06;5019452;28;20569;-84
2022/05/13 00:16:15;;;;;;;8.33;7.50;;;;;;;13.23;59.83;100930.53;5024594;28;20218;-84
2022/05/13 00:18:41;;;;;;;8.47;7.23;;;;;;;13.19;60.46;100924.53;5034939;28;20230;-84
2022/05/13 00:21:08;;;;;;;9.23;8.37;;;;;;;13.15;60.78;100929.25;5016050;28;20207;-83
2022/05/13 00:23:35;;;;;;;9.00;8.10;;;;;;;13.08;60.90;100921.72;5021037;28;20308;-83
2022/05/13 00:26:02;;;;;;;8.70;7.90;;;;;;;13.00;61.06;100929.44;5014691;28;20406;-85
2022/05/13 00:28:29;;;;;;;10.67;8.67;;;;;;;12.94;61.50;100924.50;5032572;28;20217;-85
2022/05/13 00:30:59;;;;;;;8.93;8.07;;;;;;;12.89;61.41;100923.97;5024407;28;20214;-85
2022/05/13 00:33:26;;;;;;;10.10;8.10;;;;;;;12.86;61.86;100927.72;5017938;28;20803;-83
2022/05/13 00:35:53;;;;;;;10.17;8.00;;;;;;;12.84;62.23;100932.31;5031814;28;20324;-83
2022/05/13 00:38:20;;;;;;;8.33;7.57;;;;;;;12.83;62.53;100923.41;5020029;28;20587;-84
2022/05/13 00:40:47;;;;;;;10.30;8.43;;;;;;;12.83;62.53;100919.91;5022634;28;20206;-83
2022/05/13 00:43:35;;;;;;;8.80;7.90;;;;;;;12.81;62.37;100922.66;5007240;28;20207;-83
2022/05/13 00:46:04;;;;;;;8.73;7.83;;;;;;;12.79;62.63;100927.25;5022031;28;20207;-83
2022/05/13 00:48:31;;;;;;;8.63;7.67;;;;;;;12.78;62.68;100925.53;5019742;28;20234;-83
2022/05/13 00:50:58;;;;;;;9.10;8.30;;;;;;;12.78;62.76;100925.53;5021636;28;20206;-83
2022/05/13 00:53:27;;;;;;;8.50;7.60;;;;;;;12.78;62.88;100925.53;5019001;28;20210;-84
2022/05/13 00:55:55;;;;;;;8.93;7.60;;;;;;;12.79;63.07;100929.06;5019120;28;20219;-83
2022/05/13 00:58:23;;;;;;;10.30;8.30;;;;;;;12.78;63.00;100916.66;5021133;28;20225;-84
2022/05/13 01:00:50;;;;;;;8.97;8.17;;;;;;;12.78;63.28;100922.88;5024346;28;20210;-83
2022/05/13 01:03:18;;;;;;;9.73;8.20;;;;;;;12.76;63.17;100915.91;5023728;28;20203;-84
2022/05/13 01:05:48;;;;;;;9.30;8.40;;;;;;;12.75;63.64;100916.88;5024430;28;20199;-84
2022/05/13 01:08:15;;;;;;;9.37;7.83;;;;;;;12.74;63.65;100912.47;5028416;28;20702;-84
2022/05/13 01:10:45;;;;;;;8.63;7.40;;;;;;;12.74;63.83;100917.84;5021719;28;20652;-84
2022/05/13 01:13:14;;;;;;;9.20;8.20;;;;;;;12.73;63.89;100916.13;5022159;28;20676;-85
2022/05/13 01:15:43;;;;;;;9.20;8.30;;;;;;;12.69;63.23;100912.81;5033830;28;20262;-84
2022/05/13 01:18:11;;;;;;;9.83;8.87;;;;;;;12.65;63.42;100907.78;5034934;28;20305;-85
2022/05/13 01:20:46;;;;;;;9.10;8.30;;;;;;;12.60;63.62;100907.22;5034859;28;20198;-85
2022/05/13 01:23:17;;;;;;;9.40;8.37;;;;;;;12.56;63.76;100909.25;5021253;28;20206;-83
2022/05/13 01:25:45;;;;;;;8.53;7.73;;;;;;;12.52;63.98;100910.44;5027105;28;20213;-84
2022/05/13 01:28:14;;;;;;;10.17;8.93;;;;;;;12.51;63.96;100911.41;5016229;28;20234;-85
2022/05/13 01:30:44;;;;;;;10.60;8.53;;;;;;;12.50;64.28;100915.88;5027262;28;20215;-88
2022/05/13 01:33:12;;;;;;;10.80;9.23;;;;;;;12.48;64.31;100915.13;5022588;28;20190;-86
2022/05/13 01:35:40;;;;;;;9.53;8.60;;;;;;;12.46;64.52;100903.69;5016929;28;20946;-86
2022/05/13 01:38:08;;;;;;;8.70;8.00;;;;;;;12.45;64.63;100906.44;5028765;28;20236;-86
2022/05/13 01:40:36;;;;;;;9.57;8.57;;;;;;;12.44;64.73;100902.91;5027529;28;20888;-84
2022/05/13 01:43:03;;;;;;;10.33;8.63;;;;;;;12.44;64.89;100905.59;5021332;28;20239;-85
2022/05/13 01:45:30;;;;;;;8.93;8.07;;;;;;;12.42;64.94;100899.50;5024593;28;20213;-84
2022/05/13 01:47:59;;;;;;;10.43;8.73;;;;;;;12.43;64.90;100913.72;5023436;28;20726;-84
2022/05/13 01:50:27;;;;;;;9.23;8.17;;;;;;;12.42;65.00;100896.81;5013628;28;20209;-83
2022/05/13 01:52:53;;;;;;;10.50;9.00;;;;;;;12.39;64.50;100898.84;5031957;28;20214;-84
2022/05/13 01:55:20;;;;;;;9.27;8.13;;;;;;;12.33;65.31;100902.78;5032017;28;20212;-84
2022/05/13 01:57:48;;;;;;;9.43;7.93;;;;;;;12.33;65.42;100901.94;5027262;28;20233;-84
2022/05/13 02:00:16;;;;;;;12.07;8.47;;;;;;;12.31;65.45;100893.16;5015288;28;20228;-84
2022/05/13 02:05:27;;;;;;;10.87;8.80;;;;;;;12.33;65.64;100892.13;5003564;28;20197;-84
2022/05/13 02:07:53;;;;;;;8.97;8.00;;;;;;;12.33;66.13;100892.13;5031538;28;20220;-84
2022/05/13 02:10:20;;;;;;;9.10;8.20;;;;;;;12.35;65.76;100889.34;5023967;28;20207;-84
2022/05/13 02:12:49;;;;;;;9.20;8.23;;;;;;;12.36;65.49;100886.53;5031332;28;20665;-84
2022/05/13 02:15:16;;;;;;;9.60;8.70;;;;;;;12.39;65.66;100896.16;5030952;28;20535;-85
2022/05/13 02:17:42;;;;;;;10.50;8.70;;;;;;;12.36;65.52;100891.88;5033631;28;20711;-84
2022/05/13 02:20:10;;;;;;;11.13;8.97;;;;;;;12.35;66.01;100884.84;5030219;28;20592;-85
2022/05/13 02:22:37;;;;;;;10.30;8.83;;;;;;;12.34;65.70;100892.97;5026490;28;20289;-84
2022/05/13 02:25:03;;;;;;;9.97;8.17;;;;;;;12.32;65.88;100901.09;5028764;28;20203;-84
2022/05/13 02:27:30;;;;;;;9.63;8.60;;;;;;;12.32;65.71;100897.56;5027920;28;20225;-88
2022/05/13 02:29:58;;;;;;;9.03;7.73;;;;;;;12.31;65.70;100888.69;5022149;28;20203;-86
2022/05/13 02:32:25;;;;;;;12.10;8.63;;;;;;;12.30;65.61;100880.78;5014020;28;20201;-84
2022/05/13 02:34:51;;;;;;;9.73;7.93;;;;;;;12.31;65.42;100887.81;5028512;28;20582;-84
2022/05/13 02:37:18;;;;;;;9.97;8.70;;;;;;;12.32;65.18;100894.88;5011683;28;20590;-84
2022/05/13 02:39:44;;;;;;;9.03;7.60;;;;;;;12.31;64.76;100891.34;5028114;28;20201;-84
2022/05/13 02:42:11;;;;;;;8.13;7.33;;;;;;;12.33;65.13;100888.59;5023342;28;20205;-84
2022/05/13 02:44:37;;;;;;;8.83;7.93;;;;;;;12.33;64.72;100885.91;5023022;28;20199;-84
2022/05/13 02:47:05;;;;;;;9.23;7.33;;;;;;;12.32;64.87;100877.03;5026912;28;20207;-84
2022/05/13 02:49:32;;;;;;;9.43;8.13;;;;;;;12.32;64.68;100890.41;5029763;28;20887;-84
2022/05/13 02:51:59;;;;;;;9.43;7.90;;;;;;;12.32;64.51;100887.72;5029498;28;20903;-83
2022/05/13 02:54:25;;;;;;;8.90;7.57;;;;;;;12.32;64.33;100889.53;5035976;28;20190;-87
2022/05/13 02:56:52;;;;;;;7.90;7.10;;;;;;;12.30;64.54;100889.66;5029904;28;20236;-84
2022/05/13 02:59:19;;;;;;;8.43;7.10;;;;;;;12.30;64.38;100884.31;5022128;28;20369;-85
2022/05/13 03:01:45;;;;;;;8.93;7.07;;;;;;;12.28;64.23;100875.53;5021376;28;20191;-84
2022/05/13 03:04:13;;;;;;;7.90;7.13;;;;;;;12.27;64.13;100875.63;5036947;28;20229;-87
2022/05/13 03:06:40;;;;;;;7.03;6.33;;;;;;;12.26;64.20;100884.59;5023452;28;20203;-84
2022/05/13 03:09:07;;;;;;;9.70;6.33;;;;;;;12.25;64.17;100894.44;5027479;28;20234;-87
2022/05/13 03:11:33;;;;;;;8.50;5.70;;;;;;;12.23;63.86;100882.97;5021461;28;20296;-87
2022/05/13 03:14:00;;;;;;;6.73;6.10;;;;;;;12.23;63.79;100884.78;5014430;28;20203;-85
2022/05/13 03:16:26;;;;;;;6.63;5.60;;;;;;;12.21;63.82;100879.56;5013428;28;20879;-85
2022/05/13 03:18:55;;;;;;;8.33;6.10;;;;;;;12.20;63.79;100874.31;5029567;28;20739;-85
2022/05/13 03:21:24;;;;;;;7.87;6.20;;;;;;;12.19;63.91;100873.47;5024829;28;20202;-86
2022/05/13 03:23:50;;;;;;;8.37;6.07;;;;;;;12.18;63.76;100874.44;5010017;28;20657;-86
2022/05/13 03:26:20;;;;;;;7.87;6.73;;;;;;;12.17;63.79;100870.06;5019768;28;20202;-86
2022/05/13 03:28:47;;;;;;;8.23;6.90;;;;;;;12.16;64.06;100879.88;5017533;28;20255;-86
2022/05/13 03:31:14;;;;;;;7.17;6.47;;;;;;;12.17;64.08;100878.06;5020403;28;20858;-85
2022/05/13 03:33:41;;;;;;;9.73;7.90;;;;;;;12.18;64.30;100873.59;5023231;28;20703;-86
2022/05/13 03:36:12;;;;;;;10.27;7.27;;;;;;;12.19;64.41;100873.47;5032629;28;20225;-86
2022/05/13 03:38:40;;;;;;;7.77;7.00;;;;;;;12.19;64.49;100868.13;5018578;28;20231;-85
2022/05/13 03:41:07;;;;;;;7.13;6.43;;;;;;;12.20;64.33;100867.16;5012828;28;20575;-85
2022/05/13 03:43:34;;;;;;;7.57;6.17;;;;;;;12.22;64.56;100877.75;5020715;28;20211;-85
2022/05/13 03:46:00;;;;;;;6.70;5.77;;;;;;;12.24;64.54;100881.16;5032697;28;20564;-86
2022/05/13 03:48:27;;;;;;;9.83;6.30;;;;;;;12.25;64.38;100875.72;5020483;28;20919;-86
2022/05/13 03:50:54;;;;;;;7.73;6.57;;;;;;;12.28;64.23;100875.53;5006684;28;20209;-86
2022/05/13 03:53:20;;;;;;;9.60;7.67;;;;;;;12.30;64.52;100870.09;5016337;28;20220;-86
2022/05/13 03:55:48;;;;;;;8.33;7.53;;;;;;;12.32;64.49;100871.69;5013686;28;20200;-87
2022/05/13 03:58:15;;;;;;;8.70;7.93;;;;;;;12.35;64.72;100873.31;5008903;28;20228;-86
2022/05/13 04:00:42;;;;;;;8.73;7.27;;;;;;;12.38;64.67;100870.41;5008417;28;20872;-86
2022/05/13 04:03:09;;;;;;;8.90;7.60;;;;;;;12.39;64.61;100874.81;5009812;28;20209;-86
2022/05/13 04:11:09;;;;;;;9.80;8.50;;;;;;;12.39;65.05;100859.63;5006332;28;20219;-86
2022/05/13 04:16:20;;;;;;;13.73;8.70;;;;;;;12.43;65.16;100868.28;5003358;28;20200;-86
2022/05/13 04:18:49;;;;;;;9.27;8.27;;;;;;;12.42;65.02;100867.44;5022020;28;20225;-85
2022/05/13 04:21:18;;;;;;;9.30;8.30;;;;;;;12.43;65.25;100874.50;5019202;28;20196;-86
2022/05/13 04:23:48;;;;;;;13.17;9.57;;;;;;;12.43;65.66;100868.28;5017748;28;20214;-85
2022/05/13 04:26:17;;;;;;;9.57;8.60;;;;;;;12.45;65.79;100872.59;5013317;28;20707;-85
2022/05/13 04:28:45;;;;;;;10.50;8.93;;;;;;;12.44;65.97;100873.53;5013661;28;20229;-85
2022/05/13 04:31:13;;;;;;;12.17;8.33;;;;;;;12.45;65.97;100883.25;5015136;28;20295;-86
2022/05/13 04:33:40;;;;;;;11.13;8.80;;;;;;;12.47;65.89;100878.69;5014965;28;20219;-86
2022/05/13 04:36:07;;;;;;;9.03;8.23;;;;;;;12.48;65.96;100885.75;5006428;28;20199;-86
2022/05/13 04:38:35;;;;;;;12.17;8.70;;;;;;;12.49;65.94;100886.59;5014320;28;20233;-85
2022/05/13 04:42:49;;;;;;;11.10;7.90;;;;;;;12.49;65.74;100882.09;5019090;28;20207;-86
2022/05/13 04:43:49;;;;;;;11.30;8.13;;;;;;;12.52;65.66;100889.06;5000606;28;20680;-86
2022/05/13 04:46:17;;;;;;;8.43;7.27;;;;;;;12.54;65.72;100886.28;5001643;28;20756;-86
2022/05/13 04:48:44;;;;;;;12.97;8.80;;;;;;;12.56;65.80;100889.69;5014289;28;20309;-86
2022/05/13 04:51:11;;;;;;;12.80;7.97;;;;;;;12.59;65.76;100889.47;5014860;28;20207;-86
2022/05/13 04:53:39;;;;;;;8.63;7.43;;;;;;;12.61;65.71;100882.22;5020405;28;20575;-86
2022/05/13 04:56:08;;;;;;;8.07;7.17;;;;;;;12.63;65.27;100883.84;5007319;28;20207;-86
2022/05/13 04:58:35;;;;;;;11.10;7.63;;;;;;;12.66;65.37;100893.47;5013870;28;20305;-86
2022/05/13 05:01:05;;;;;;;8.37;6.93;;;;;;;12.68;65.14;100889.72;5010790;28;20674;-86
2022/05/13 05:03:32;;;;;;;7.27;6.53;;;;;;;12.72;65.20;100887.72;5007622;28;20678;-86
2022/05/13 05:06:00;;;;;;;8.70;5.93;;;;;;;12.77;65.25;100891.75;5012546;28;20199;-87
2022/05/13 05:08:31;;;;;;;8.40;6.83;;;;;;;12.81;65.02;100895.09;5011021;28;20248;-86
2022/05/13 05:10:58;;;;;;;6.37;5.77;;;;;;;12.85;64.60;100894.78;5009616;28;20208;-86
2022/05/13 05:13:27;;;;;;;8.80;5.80;;;;;;;12.89;64.29;100895.44;5001001;28;20198;-85
2022/05/13 05:15:54;;;;;;;8.07;5.90;;;;;;;12.95;64.18;100899.47;5014387;28;20760;-85
2022/05/13 05:18:23;;;;;;;10.03;6.73;;;;;;;12.99;63.71;100900.97;5003510;28;20319;-86
2022/05/13 05:20:50;;;;;;;11.13;6.13;;;;;;;13.03;63.56;100908.69;5008687;28;20208;-86
2022/05/13 05:23:20;;;;;;;7.03;5.70;;;;;;;13.12;63.92;100907.19;5003864;28;20213;-83
2022/05/13 05:25:47;;;;;;;9.27;7.00;;;;;;;13.16;63.74;100898.88;5013140;28;20243;-86
2022/05/13 05:28:14;;;;;;;9.00;5.97;;;;;;;13.23;63.27;100903.81;5012734;28;20223;-84
2022/05/13 05:30:42;;;;;;;6.20;5.23;;;;;;;13.28;62.81;100906.97;5010216;28;20215;-83
2022/05/13 05:33:09;;;;;;;7.53;5.47;;;;;;;13.31;62.64;100918.31;5010817;28;20207;-84
2022/05/13 05:35:38;;;;;;;9.43;5.93;;;;;;;13.35;62.53;100911.81;5009323;28;20264;-84
2022/05/13 05:38:05;;;;;;;7.60;5.40;;;;;;;13.41;62.35;100908.72;5011431;28;20239;-84
2022/05/13 05:40:32;;;;;;;6.00;4.93;;;;;;;13.47;62.53;100915.41;5011908;28;20203;-83
2022/05/13 05:43:03;;;;;;;7.27;5.10;;;;;;;13.52;62.05;100915.97;5012463;28;20214;-84
2022/05/13 05:45:30;;;;;;;6.30;5.10;;;;;;;13.59;61.85;100927.09;5011833;28;20186;-84
2022/05/13 05:47:56;;;;;;;7.83;4.87;;;;;;;13.63;61.35;100936.59;5011559;28;20234;-84
2022/05/13 05:50:23;;;;;;;5.93;5.13;;;;;;;13.65;61.19;100937.34;5011774;28;20245;-84
2022/05/13 05:52:51;;;;;;;10.50;5.77;;;;;;;13.68;60.89;100948.69;5011846;28;20594;-83
2022/05/13 05:58:04;;;;;;;7.93;4.87;;;;;;;13.73;60.81;100959.94;5011282;28;20238;-83
2022/05/13 06:00:33;;;;;;;8.30;5.93;;;;;;;13.73;60.97;100956.41;5011553;28;20207;-84
2022/05/13 06:03:00;;;;;;;9.37;6.37;;;;;;;13.74;61.22;100969.66;5011027;28;20211;-84
2022/05/13 06:05:27;;;;;;;7.60;5.50;;;;;;;13.75;61.01;100960.69;5010862;28;20213;-83
2022/05/13 06:07:57;;;;;;;11.70;5.90;;;;;;;13.79;61.10;100961.31;5011192;28;20250;-83
2022/05/13 06:10:25;;;;;;;7.00;5.60;;;;;;;13.82;61.29;100975.31;5011954;28;20783;-83
2022/05/13 06:12:51;;;;;;;7.37;5.33;;;;;;;13.89;61.70;100973.91;5011208;28;20236;-83
2022/05/13 06:15:18;;;;;;;7.10;5.60;;;;;;;13.94;61.78;100980.78;5011268;28;20213;-83
2022/05/13 06:17:47;;;;;;;6.90;5.27;;;;;;;13.97;61.53;100977.88;5011131;28;20231;-83
2022/05/13 06:20:15;;;;;;;7.17;5.17;;;;;;;13.99;60.67;100984.81;5011314;28;20207;-83
2022/05/13 06:22:41;;;;;;;6.00;4.53;;;;;;;13.99;60.73;100984.81;5011190;28;20215;-83
2022/05/13 06:25:11;;;;;;;9.23;4.63;;;;;;;14.01;61.27;100987.38;5011454;28;20633;-83
2022/05/13 06:27:39;;;;;;;7.07;4.87;;;;;;;14.03;61.10;100988.97;5011162;28;20226;-83
2022/05/13 06:30:07;;;;;;;7.70;4.73;;;;;;;14.07;60.86;100992.31;5011168;28;20207;-83
2022/05/13 06:32:34;;;;;;;5.73;4.00;;;;;;;14.09;60.64;100998.41;5011372;28;20653;-83
2022/05/13 06:35:00;;;;;;;6.90;2.87;;;;;;;14.10;60.57;100998.31;5011408;28;20218;-83
2022/05/13 06:37:27;;;;;;;6.00;3.30;;;;;;;14.12;59.74;100995.50;5011333;28;20693;-83
2022/05/13 06:39:53;;;;;;;6.70;2.83;;;;;;;14.10;59.14;100997.44;5011207;28;20214;-83
2022/05/13 06:42:21;;;;;;;5.40;2.80;;;;;;;14.07;58.86;100993.16;5011002;28;20207;-83
2022/05/13 06:44:48;;;;;;;4.43;3.17;;;;;;;14.06;58.08;100990.59;5011134;28;20206;-83
2022/05/13 06:47:16;;;;;;;4.50;2.83;;;;;;;14.07;58.21;100994.97;5011160;28;20207;-82
2022/05/13 06:49:43;;;;;;;7.33;3.40;;;;;;;14.05;57.83;100995.09;5011797;28;20246;-82
2022/05/13 06:52:13;;;;;;;4.73;3.13;;;;;;;14.05;57.85;100991.56;5012808;28;20690;-83
2022/05/13 06:54:40;;;;;;;5.13;3.67;;;;;;;14.06;58.03;100996.81;5011337;28;20191;-83
2022/05/13 06:57:07;;;;;;;6.97;3.13;;;;;;;14.10;58.13;101000.13;5011409;28;20202;-83
2022/05/13 06:59:35;;;;;;;8.93;5.13;;;;;;;14.12;58.13;100991.00;5011756;28;20215;-83
2022/05/13 07:02:01;;;;;;;9.90;5.47;;;;;;;14.16;58.03;100992.47;5010974;28;20203;-83
2022/05/13 07:04:28;;;;;;;5.77;3.20;;;;;;;14.19;57.52;100986.91;5010904;28;20218;-83
2022/05/13 07:06:54;;;;;;;6.73;3.40;;;;;;;14.25;57.62;100977.56;5014821;28;20206;-83
2022/05/13 07:09:21;;;;;;;7.93;3.23;;;;;;;14.31;57.88;100961.06;5014704;28;20223;-83
2022/05/13 07:11:47;;;;;;;4.60;3.40;;;;;;;14.37;58.35;100963.25;5014176;28;20214;-83
2022/05/13 07:14:14;;;;;;;6.37;3.57;;;;;;;14.45;58.01;100965.41;5014804;28;20206;-83
2022/05/13 07:16:42;;;;;;;6.93;3.33;;;;;;;14.52;58.12;100972.88;5014297;28;20257;-83
2022/05/13 07:19:09;;;;;;;7.73;4.17;;;;;;;14.62;58.38;100967.69;5014621;28;20237;-82
2022/05/13 07:21:36;;;;;;;11.00;3.93;;;;;;;14.71;58.37;100963.44;5014970;28;20210;-83
2022/05/13 07:24:02;;;;;;;9.50;3.63;;;;;;;14.79;58.14;100974.47;5014976;28;20207;-83
2022/05/13 07:26:29;;;;;;;8.53;4.50;;;;;;;14.88;58.01;100971.06;5014784;28;20297;-83
2022/05/13 07:28:55;;;;;;;8.40;4.03;;;;;;;14.94;57.63;100965.25;5014387;28;20874;-83
2022/05/13 07:31:22;;;;;;;10.57;3.70;;;;;;;15.01;57.00;100961.13;5014909;28;20217;-83
2022/05/13 07:33:50;;;;;;;8.60;3.70;;;;;;;15.04;56.76;100963.59;5014378;28;20210;-83
2022/05/13 07:36:16;;;;;;;6.43;3.97;;;;;;;15.07;56.13;100971.38;5014891;28;20665;-84
2022/05/13 07:41:25;;;;;;;5.37;3.23;;;;;;;15.26;56.62;100970.78;5012837;28;20544;-83
2022/05/13 07:43:52;;;;;;;6.27;3.17;;;;;;;15.36;56.04;100971.81;5014609;28;20260;-83
2022/05/13 07:46:19;;;;;;;6.00;3.40;;;;;;;15.42;55.36;100971.31;5014485;28;20253;-83
2022/05/13 07:48:45;;;;;;;4.03;2.87;;;;;;;15.49;55.70;100969.00;5014143;28;20223;-83
2022/05/13 07:51:13;;;;;;;8.37;3.20;;;;;;;15.59;55.43;100980.75;5013900;28;20219;-83
2022/05/13 07:53:40;;;;;;;5.70;2.60;;;;;;;15.63;54.63;100971.47;5013967;28;20215;-83
2022/05/13 07:56:08;;;;;;;6.37;3.07;;;;;;;15.71;54.74;100973.56;5014271;28;20214;-83
2022/05/13 07:58:34;;;;;;;6.73;2.60;;;;;;;15.77;54.55;100971.22;5014302;28;20232;-83
2022/05/13 08:01:01;;;;;;;6.53;2.80;;;;;;;15.81;53.58;100970.00;5013807;28;20207;-83
2022/05/13 08:03:30;;;;;;;6.03;2.87;;;;;;;15.93;53.46;100976.25;5013613;28;20659;-83
2022/05/13 08:06:02;;;;;;;5.33;2.67;;;;;;;15.98;52.34;100982.09;5014594;28;20211;-83
2022/05/13 08:08:35;;;;;;;6.73;2.80;;;;;;;16.05;52.19;100982.47;5014189;28;20229;-83
2022/05/13 08:11:04;;;;;;;5.97;2.27;;;;;;;16.11;51.85;100987.34;5013866;28;20219;-83
2022/05/13 08:13:33;;;;;;;5.10;2.37;;;;;;;16.15;51.92;100978.03;5013842;28;20212;-84
2022/05/13 08:16:01;;;;;;;6.10;2.27;;;;;;;16.16;51.33;100980.59;5014482;28;20270;-83
2022/05/13 08:18:28;;;;;;;8.23;2.77;;;;;;;16.19;51.46;100987.56;5014332;28;20309;-83
2022/05/13 08:20:55;;;;;;;4.03;1.93;;;;;;;16.20;51.41;100982.06;5013642;28;20205;-83
2022/05/13 08:23:22;;;;;;;7.30;2.60;;;;;;;16.27;51.42;100987.81;5013768;28;20315;-83
2022/05/13 08:25:50;;;;;;;7.43;2.43;;;;;;;16.39;51.51;100978.72;5013311;28;20582;-83
2022/05/13 08:28:20;;;;;;;7.23;2.00;;;;;;;16.46;50.54;100988.00;5013523;28;20228;-83
2022/05/13 08:30:46;;;;;;;8.53;2.10;;;;;;;16.49;49.84;100995.78;5013334;28;20209;-83
2022/05/13 08:33:13;;;;;;;3.90;2.03;;;;;;;16.49;49.88;100997.63;5013651;28;20670;-84
2022/05/13 08:35:44;;;;;;;3.87;1.90;;;;;;;16.52;49.94;101002.75;5013541;28;20215;-83
2022/05/13 08:38:11;;;;;;;7.90;2.20;;;;;;;16.56;49.72;100997.00;5014583;28;20331;-84
2022/05/13 08:41:02;;;;;;;7.73;2.17;;;;;;;16.56;49.86;100999.69;5015427;28;20205;-82
2022/05/13 08:43:35;;;;;;;4.60;2.40;;;;;;;16.60;49.60;100994.91;5015905;28;20821;-81
2022/05/13 08:46:08;;;;;;;5.00;2.40;;;;;;;16.61;49.70;101008.25;5015910;28;20238;-83
2022/05/13 08:48:46;;;;;;;7.30;2.73;;;;;;;16.64;49.58;101015.25;5015802;28;20735;-82
2022/05/13 08:51:15;;;;;;;5.33;2.70;;;;;;;16.66;49.88;101016.78;5015418;28;20187;-83
2022/05/13 08:53:50;;;;;;;8.10;3.20;;;;;;;16.71;49.89;101008.34;5014812;28;20588;-83
2022/05/13 08:56:28;;;;;;;7.20;3.50;;;;;;;16.77;50.23;101015.91;5017327;28;20200;-82
2022/05/13 08:58:59;;;;;;;4.60;2.90;;;;;;;16.88;50.49;101017.69;5014796;28;20235;-83
2022/05/13 09:01:32;;;;;;;7.80;3.90;;;;;;;16.89;50.00;101031.03;5014137;28;20192;-83
2022/05/13 09:04:03;;;;;;;7.83;3.90;;;;;;;16.88;50.08;101028.47;5013093;28;20203;-82
2022/05/13 09:06:37;;;;;;;7.67;3.50;;;;;;;16.84;49.99;101033.22;5013244;28;20243;-82
2022/05/13 09:09:06;;;;;;;6.03;3.47;;;;;;;16.73;50.03;101024.34;5013245;28;20224;-82
2022/05/13 09:11:42;;;;;;;7.30;3.87;;;;;;;16.68;50.79;101022.03;5012913;28;20606;-82
2022/05/13 09:14:17;;;;;;;8.70;3.80;;;;;;;16.67;51.05;101020.34;5013298;28;20638;-82
2022/05/13 09:16:51;;;;;;;6.00;3.20;;;;;;;16.71;51.08;101023.63;5012705;28;20201;-82
2022/05/13 09:19:28;;;;;;;8.33;3.60;;;;;;;16.76;51.12;101029.50;5012212;28;20235;-83
2022/05/13 09:21:55;;;;;;;6.97;3.47;;;;;;;16.81;51.59;101029.97;5013110;28;20200;-82
2022/05/13 09:24:21;;;;;;;6.57;3.67;;;;;;;16.84;51.23;101019.78;5013594;28;20245;-82
2022/05/13 09:26:50;;;;;;;6.57;3.50;;;;;;;16.91;51.18;101026.38;5012383;28;20215;-83
2022/05/13 09:29:19;;;;;;;7.20;3.30;;;;;;;16.97;50.87;101019.63;5012581;28;20704;-83
2022/05/13 09:31:47;;;;;;;7.23;3.53;;;;;;;17.04;50.49;101010.03;5012984;28;20208;-83
2022/05/13 09:34:17;;;;;;;6.67;4.00;;;;;;;17.10;50.08;101019.44;5012530;28;20214;-83
2022/05/13 09:36:44;;;;;;;4.33;3.53;;;;;;;17.16;50.42;101019.78;5012454;28;20208;-82
2022/05/13 09:39:20;;;;;;;6.87;3.57;;;;;;;17.26;50.17;101022.53;5011725;28;20232;-82
2022/05/13 09:41:52;;;;;;;8.30;3.77;;;;;;;17.34;50.13;101018.22;5012186;28;20207;-83
2022/05/13 09:44:20;;;;;;;6.90;3.30;;;;;;;17.43;49.60;101018.38;5012327;28;20624;-83
2022/05/13 09:46:50;;;;;;;10.23;4.00;;;;;;;17.49;49.26;101005.25;5012256;28;20209;-83
2022/05/13 09:49:25;;;;;;;5.33;3.93;;;;;;;17.61;49.62;101014.09;5011763;28;20234;-82
2022/05/13 09:51:55;;;;;;;5.43;3.33;;;;;;;17.73;49.07;101014.94;5012729;28;20205;-83
2022/05/13 09:54:27;;;;;;;7.00;3.47;;;;;;;17.79;48.73;101020.59;5012289;28;20238;-83
2022/05/13 09:57:07;;;;;;;6.13;3.53;;;;;;;17.93;48.49;101016.69;5012350;28;20205;-83
2022/05/13 09:59:37;;;;;;;6.80;3.53;;;;;;;17.99;47.73;101006.22;5011569;28;20232;-82
2022/05/13 10:02:23;;;;;;;8.90;3.70;;;;;;;17.98;47.35;100996.44;5012118;28;20199;-83
2022/05/13 10:04:52;;;;;;;6.73;3.57;;;;;;;17.97;46.62;100993.88;5012048;28;20237;-82
2022/05/13 10:07:21;;;;;;;5.87;3.53;;;;;;;17.99;46.52;100992.75;5011764;28;20203;-82
2022/05/13 10:15:28;;;;;;;5.20;2.70;;;;;;;18.23;45.98;101000.50;5011750;28;20317;-83
2022/05/13 10:18:02;;;;;;;5.40;2.97;;;;;;;18.39;46.06;100997.28;5026063;28;20228;-83
2022/05/13 10:20:34;;;;;;;4.30;2.90;;;;;;;18.52;45.80;101005.09;5030983;28;20274;-83
2022/05/13 10:23:11;;;;;;;4.77;3.27;;;;;;;18.56;44.82;101001.13;5031358;28;20195;-82
2022/05/13 10:25:52;;;;;;;5.80;3.17;;;;;;;18.60;44.80;101014.25;5030954;28;20199;-83
2022/05/13 10:28:27;;;;;;;6.77;3.50;;;;;;;18.64;44.98;101004.00;5031022;28;20229;-82
2022/05/13 10:30:59;;;;;;;7.13;3.50;;;;;;;18.67;45.21;101011.81;5031692;28;20206;-82
2022/05/13 10:33:32;;;;;;;3.33;2.37;;;;;;;18.71;45.00;101011.41;5031040;28;20188;-82
2022/05/13 10:36:03;;;;;;;4.70;1.70;;;;;;;18.71;44.17;101000.59;5031505;28;20242;-82
2022/05/13 10:38:33;;;;;;;6.00;1.83;;;;;;;18.71;43.73;101005.16;5031371;28;20226;-82
2022/05/13 10:41:10;;;;;;;5.20;1.83;;;;;;;18.73;43.54;101009.41;5035078;28;20211;-82
2022/05/13 10:43:44;;;;;;;4.53;1.90;;;;;;;18.76;43.50;100997.50;5035622;28;20198;-82
2022/05/13 10:46:20;;;;;;;3.03;1.70;;;;;;;18.80;43.05;101008.88;5036272;28;20201;-82
2022/05/13 10:48:50;;;;;;;2.90;1.53;;;;;;;18.80;42.47;101009.72;5035816;28;20223;-82
2022/05/13 10:51:22;;;;;;;3.57;1.47;;;;;;;18.81;42.50;101019.50;5036539;28;20199;-83
2022/05/13 10:54:09;;;;;;;3.77;1.47;;;;;;;18.80;42.02;101003.47;5035721;28;20210;-83
2022/05/13 10:56:42;;;;;;;3.60;1.60;;;;;;;18.77;41.82;101020.78;5035968;28;20241;-83
2022/05/13 10:59:25;;;;;;;3.50;1.43;;;;;;;18.72;42.04;101018.50;5035535;28;20239;-82
2022/05/13 11:02:02;;;;;;;3.37;1.33;;;;;;;18.71;41.89;101015.94;5035485;28;20202;-83
2022/05/13 11:04:34;;;;;;;2.07;1.00;;;;;;;18.73;42.39;101024.75;5035582;28;20191;-83
2022/05/13 11:07:11;;;;;;;6.57;1.77;;;;;;;18.75;42.67;101028.16;5035911;28;20700;-82
2022/05/13 11:09:47;;;;;;;7.20;1.50;;;;;;;18.70;42.87;101025.03;5035938;28;20185;-83
2022/05/13 11:12:26;;;;;;;3.43;1.70;;;;;;;18.66;43.03;101040.63;5035999;28;20197;-82
2022/05/13 11:15:07;;;;;;;2.50;1.40;;;;;;;18.64;43.20;101037.22;5035857;28;20191;-82
2022/05/13 11:17:43;;;;;;;6.43;1.80;;;;;;;18.62;43.38;101033.84;5035468;28;20656;-82
2022/05/13 11:20:23;;;;;;;3.57;1.77;;;;;;;18.63;43.12;101035.53;5035570;28;20221;-82
2022/05/13 11:23:01;;;;;;;1.97;1.10;;;;;;;18.62;42.98;101035.69;5035236;28;20195;-83
2022/05/13 11:29:03;;;;;;;3.70;1.40;;;;;;;18.65;42.68;101041.63;5014599;28;20261;-83
2022/05/13 11:31:53;;;;;;;3.43;1.40;;;;;;;18.68;42.43;101038.66;5035552;28;20568;-82
2022/05/13 11:34:31;;;;;;;2.80;1.47;;;;;;;18.68;42.22;101035.97;5034962;28;20701;-82
2022/05/13 11:37:00;;;;;;;4.47;1.70;;;;;;;18.71;42.50;101041.09;5035174;28;20196;-82
2022/05/13 11:39:44;;;;;;;4.27;1.20;;;;;;;18.73;42.47;101047.19;5034664;28;20231;-83
2022/05/13 11:42:27;;;;;;;4.30;1.40;;;;;;;18.77;42.87;101046.91;5035055;28;20192;-83
2022/05/13 11:45:14;;;;;;;4.07;1.53;;;;;;;18.73;42.03;101039.09;5035042;28;20558;-83
2022/05/13 11:47:56;;;;;;;4.43;1.70;;;;;;;18.68;42.71;101054.84;5034531;28;20224;-82
2022/05/13 11:50:24;;;;;;;6.17;1.80;;;;;;;18.69;42.94;101051.16;5033913;28;20204;-83
2022/05/13 11:52:53;;;;;;;4.43;1.63;;;;;;;18.72;43.16;101047.34;5034128;28;20217;-83
2022/05/13 11:55:24;;;;;;;4.87;1.40;;;;;;;18.75;43.11;101041.66;5024289;28;20225;-83
2022/05/13 11:57:54;;;;;;;3.77;1.20;;;;;;;18.77;43.09;101046.91;5003248;28;20225;-83
2022/05/13 12:00:35;;;;;;;4.63;1.57;;;;;;;18.75;42.88;101049.75;5014832;28;20700;-83